3X5 weather

North Bass Island Airport
North Bass Island, Ohio, United States

Public forecast

Using degrees Fahrenheit for public forecast. Weather courtesy of forecast.io.

Closest aviation weather report (METAR) to North Bass Island Airport

Closest report is Carl R Keller Field, 12.3 nm (22.8 km) S. Retrieved 2020/06/07 05:55 UTC (8 minutes ago):

KPCW 070555Z AUTO 06009KT 10SM CLR 17/11 A3005 RMK AO2

Closest aviation forecast (TAF) to North Bass Island Airport

Closest forecast is Windsor Airport, 34.0 nm (63.0 km) N. Retrieved 2020/06/07 06:42 UTC (0 seconds ago):

TAF CYQG 070538Z 0706/0806 04010KT P6SM SKC FM071500 05010KT P6SM SKC BECMG 0804/0806 04006KT RMK FCST BASED ON AUTO OBS NXT FCST BY 071200Z